createdAt,value
2022-09-06T00:00:13.860Z,3.53
2022-09-06T00:02:41.454Z,4.15
2022-09-06T00:05:09.766Z,4.28
2022-09-06T00:07:36.822Z,3.42
2022-09-06T00:10:04.878Z,3.80
2022-09-06T00:12:32.246Z,3.72
2022-09-06T00:14:58.767Z,4.20
2022-09-06T00:17:25.407Z,4.22
2022-09-06T00:22:18.795Z,4.32
2022-09-06T00:24:45.333Z,3.95
2022-09-06T00:27:12.006Z,4.63
2022-09-06T00:32:05.079Z,3.83
2022-09-06T00:36:58.282Z,4.07
2022-09-06T00:39:24.877Z,4.20
2022-09-06T00:44:17.971Z,3.90
2022-09-06T00:49:24.212Z,4.55
2022-09-06T00:51:57.755Z,4.25
2022-09-06T00:54:24.497Z,4.00
2022-09-06T00:56:51.151Z,3.70
2022-09-06T01:01:44.453Z,4.43
2022-09-06T01:06:51.859Z,4.70
2022-09-06T01:09:48.428Z,4.25
2022-09-06T01:12:38.327Z,4.30
2022-09-06T01:15:14.543Z,4.40
2022-09-06T01:17:46.588Z,4.80
2022-09-06T01:20:19.290Z,4.38
2022-09-06T01:22:57.618Z,4.55
2022-09-06T01:25:42.997Z,4.53
2022-09-06T01:28:33.210Z,4.63
2022-09-06T01:31:14.054Z,4.60
2022-09-06T01:33:50.815Z,4.43
2022-09-06T01:36:22.873Z,4.00
2022-09-06T01:38:49.648Z,4.30
2022-09-06T01:41:16.149Z,4.35
2022-09-06T01:43:47.424Z,4.50
2022-09-06T01:46:24.709Z,4.05
2022-09-06T01:48:57.448Z,4.75
2022-09-06T01:51:49.751Z,4.30
2022-09-06T01:54:28.329Z,4.40
2022-09-06T01:56:57.804Z,4.80
2022-09-06T01:59:40.273Z,3.72
2022-09-06T02:02:14.456Z,3.80
2022-09-06T02:05:01.402Z,4.97
2022-09-06T02:07:30.917Z,4.22
2022-09-06T02:10:07.755Z,4.15
2022-09-06T02:12:37.085Z,4.43
2022-09-06T02:15:32.808Z,4.65
2022-09-06T02:18:06.075Z,4.10
2022-09-06T02:20:36.591Z,3.83
2022-09-06T02:23:06.006Z,4.07
2022-09-06T02:25:42.020Z,4.95
2022-09-06T02:28:10.112Z,4.53
2022-09-06T02:30:42.017Z,4.35
2022-09-06T02:33:14.418Z,4.53
2022-09-06T02:35:47.650Z,4.50
2022-09-06T02:38:15.099Z,4.22
2022-09-06T02:40:43.231Z,4.28
2022-09-06T02:43:10.210Z,5.10
2022-09-06T02:45:37.121Z,4.32
2022-09-06T02:48:04.066Z,4.82
2022-09-06T02:50:30.838Z,4.68
2022-09-06T02:53:06.213Z,4.95
2022-09-06T02:55:33.340Z,4.43
2022-09-06T02:57:59.990Z,4.63
2022-09-06T03:00:28.992Z,4.78
2022-09-06T03:02:56.413Z,4.78
2022-09-06T03:05:24.488Z,4.65
2022-09-06T03:07:51.385Z,4.40
2022-09-06T03:10:17.929Z,4.55
2022-09-06T03:12:45.126Z,4.78
2022-09-06T03:15:14.399Z,4.72
2022-09-06T03:17:41.554Z,4.70
2022-09-06T03:20:09.664Z,4.47
2022-09-06T03:22:37.592Z,4.15
2022-09-06T03:25:04.346Z,5.05
2022-09-06T03:27:31.871Z,4.55
2022-09-06T03:29:58.362Z,4.82
2022-09-06T03:32:25.187Z,4.70
2022-09-06T03:34:51.918Z,4.40
2022-09-06T03:37:19.547Z,4.85
2022-09-06T03:39:46.118Z,4.30
2022-09-06T03:44:39.150Z,4.78
2022-09-06T03:49:32.245Z,4.38
2022-09-06T03:51:58.778Z,4.90
2022-09-06T03:56:51.791Z,4.97
2022-09-06T03:59:18.290Z,4.75
2022-09-06T04:01:44.919Z,5.18
2022-09-06T04:04:11.730Z,4.30
2022-09-06T04:06:38.299Z,5.10
2022-09-06T04:09:04.857Z,5.15
2022-09-06T04:13:57.798Z,5.13
2022-09-06T04:16:24.387Z,4.25
2022-09-06T04:21:17.675Z,5.25
2022-09-06T04:23:44.204Z,5.25
2022-09-06T04:26:10.896Z,5.38
2022-09-06T04:28:37.664Z,4.63
2022-09-06T04:31:05.363Z,4.95
2022-09-06T04:33:34.207Z,4.57
2022-09-06T04:36:02.608Z,5.07
2022-09-06T04:38:31.254Z,5.18
2022-09-06T04:40:57.842Z,4.88
2022-09-06T04:45:51.671Z,4.57
2022-09-06T04:48:18.552Z,4.20
2022-09-06T04:50:45.139Z,5.28
2022-09-06T04:55:38.279Z,4.90
2022-09-06T05:00:33.859Z,5.18
2022-09-06T05:03:00.411Z,5.00
2022-09-06T05:05:27.660Z,5.07
2022-09-06T05:10:22.694Z,5.78
2022-09-06T05:12:50.665Z,5.28
2022-09-06T05:15:18.475Z,4.82
2022-09-06T05:17:45.052Z,4.90
2022-09-06T05:22:38.907Z,4.53
2022-09-06T05:25:06.245Z,4.30
2022-09-06T05:27:32.800Z,5.00
2022-09-06T05:32:25.817Z,4.43
2022-09-06T05:34:52.391Z,4.00
2022-09-06T05:39:45.404Z,3.67
2022-09-06T05:42:14.874Z,4.25
2022-09-06T05:44:43.756Z,3.75
2022-09-06T05:49:36.783Z,3.25
2022-09-06T05:54:29.790Z,4.07
2022-09-06T05:59:22.792Z,3.70
2022-09-06T06:04:18.630Z,3.53
2022-09-06T06:06:49.373Z,4.00
2022-09-06T06:09:16.838Z,4.15
2022-09-06T06:11:43.998Z,3.88
2022-09-06T06:14:10.890Z,4.43
2022-09-06T06:16:37.546Z,4.20
2022-09-06T06:19:04.123Z,4.97
2022-09-06T06:26:31.643Z,4.38
2022-09-06T06:29:02.243Z,4.97
2022-09-06T06:31:30.440Z,5.28
2022-09-06T06:33:58.255Z,4.78
2022-09-06T06:36:26.999Z,5.30
2022-09-06T06:38:55.467Z,4.72
2022-09-06T06:41:24.634Z,4.85
2022-09-06T06:43:59.271Z,5.57
2022-09-06T06:46:29.356Z,4.82
2022-09-06T06:48:55.978Z,5.05
2022-09-06T06:53:51.494Z,5.70
2022-09-06T06:56:23.649Z,6.45
2022-09-06T06:58:52.424Z,6.88
2022-09-06T07:01:21.021Z,9.50
2022-09-06T07:03:48.309Z,11.38
2022-09-06T07:06:15.904Z,8.05
2022-09-06T07:08:43.092Z,10.48
2022-09-06T07:11:12.228Z,8.65
2022-09-06T07:13:38.997Z,9.48
2022-09-06T07:16:13.595Z,10.05
2022-09-06T07:18:42.338Z,10.02
2022-09-06T07:24:10.594Z,9.02
2022-09-06T07:26:39.563Z,9.30
2022-09-06T07:29:07.793Z,10.45
2022-09-06T07:36:51.627Z,11.60
2022-09-06T07:39:18.187Z,12.77
2022-09-06T07:41:44.727Z,10.75
2022-09-06T07:46:37.749Z,10.70
2022-09-06T07:51:32.072Z,10.68
2022-09-06T07:54:19.347Z,9.20
2022-09-06T07:56:45.171Z,10.07
2022-09-06T08:01:39.586Z,9.73
2022-09-06T08:04:09.073Z,10.18
2022-09-06T08:09:25.210Z,9.73
2022-09-06T08:14:19.948Z,9.65
2022-09-06T08:16:46.521Z,8.65
2022-09-06T08:21:40.939Z,8.75
2022-09-06T08:26:39.852Z,11.32
2022-09-06T08:29:08.641Z,11.18
2022-09-06T08:31:37.276Z,10.15
2022-09-06T08:34:04.244Z,9.40
2022-09-06T08:36:30.933Z,9.15
2022-09-06T08:39:01.853Z,9.10
2022-09-06T08:41:51.182Z,9.65
2022-09-06T08:47:08.187Z,9.75
2022-09-06T08:49:45.043Z,10.95
2022-09-06T08:55:39.031Z,6.07
2022-09-06T08:58:11.413Z,7.28
2022-09-06T09:00:38.826Z,6.68
2022-09-06T09:03:17.143Z,8.18
2022-09-06T09:05:48.346Z,9.35
2022-09-06T09:08:29.951Z,8.07
2022-09-06T09:11:03.074Z,8.98
2022-09-06T09:13:47.565Z,8.38
2022-09-06T09:16:15.379Z,7.55
2022-09-06T09:18:46.533Z,8.50
2022-09-06T09:21:25.672Z,7.65
2022-09-06T09:23:58.847Z,7.90
2022-09-06T09:26:28.313Z,6.93
2022-09-06T09:29:10.290Z,5.80
2022-09-06T09:31:48.779Z,5.47
2022-09-06T09:34:33.659Z,4.78
2022-09-06T09:40:28.715Z,4.93
2022-09-06T09:43:08.950Z,4.40
2022-09-06T09:45:35.541Z,4.32
2022-09-06T09:48:24.839Z,4.03
2022-09-06T09:50:51.598Z,3.72
2022-09-06T09:53:22.215Z,4.15
2022-09-06T09:55:56.113Z,3.50
2022-09-06T09:58:22.777Z,4.30
2022-09-06T10:01:10.125Z,3.20
2022-09-06T10:09:44.508Z,3.10
2022-09-06T10:12:31.960Z,3.22
2022-09-06T10:17:33.673Z,3.13
2022-09-06T10:20:18.983Z,3.22
2022-09-06T10:22:56.216Z,2.83
2022-09-06T10:26:00.513Z,3.70
2022-09-06T10:28:42.028Z,3.10
2022-09-06T10:31:14.258Z,3.15
2022-09-06T10:34:18.208Z,3.22
2022-09-06T10:37:08.666Z,2.88
2022-09-06T10:39:41.446Z,3.70
2022-09-06T10:42:10.907Z,2.97
2022-09-06T10:45:08.753Z,3.20
2022-09-06T10:50:17.044Z,2.85
2022-09-06T10:52:47.749Z,3.17
2022-09-06T10:55:17.576Z,2.70
2022-09-06T11:00:46.649Z,2.63
2022-09-06T11:06:28.241Z,2.70
2022-09-06T11:09:13.401Z,2.75
2022-09-06T11:11:49.872Z,3.00
2022-09-06T11:14:18.751Z,3.08
2022-09-06T11:17:09.665Z,3.58
2022-09-06T11:19:44.216Z,3.10
2022-09-06T11:22:47.851Z,2.88
2022-09-06T11:30:07.512Z,3.13
2022-09-06T11:32:38.963Z,3.13
2022-09-06T11:35:23.749Z,2.65
2022-09-06T11:38:00.478Z,2.83
2022-09-06T11:42:58.633Z,3.15
2022-09-06T11:45:51.772Z,2.20
2022-09-06T11:48:24.216Z,3.20
2022-09-06T11:50:53.761Z,3.03
2022-09-06T11:53:26.271Z,2.90
2022-09-06T11:56:02.212Z,3.08
2022-09-06T11:58:37.429Z,2.90
2022-09-06T12:01:13.219Z,3.60
2022-09-06T12:04:04.928Z,2.80
2022-09-06T12:07:03.675Z,2.78
2022-09-06T12:09:44.075Z,2.80
2022-09-06T12:12:16.247Z,2.65
2022-09-06T12:14:46.802Z,3.10
2022-09-06T12:17:13.243Z,2.83
2022-09-06T12:19:47.409Z,2.95
2022-09-06T12:22:29.380Z,3.55
2022-09-06T12:24:57.201Z,3.45
2022-09-06T12:27:26.919Z,3.92
2022-09-06T12:29:59.464Z,3.55
2022-09-06T12:32:36.060Z,3.10
2022-09-06T12:38:04.969Z,3.05
2022-09-06T12:40:40.773Z,3.33
2022-09-06T12:43:10.548Z,2.92
2022-09-06T12:45:43.093Z,2.60
2022-09-06T12:48:13.081Z,3.55
2022-09-06T12:50:40.528Z,2.90
2022-09-06T12:53:25.000Z,2.75
2022-09-06T12:56:04.531Z,2.67
2022-09-06T12:58:31.050Z,3.20
2022-09-06T13:01:10.756Z,2.90
2022-09-06T13:03:49.042Z,3.40
2022-09-06T13:06:24.491Z,3.38
2022-09-06T13:08:57.161Z,3.00
2022-09-06T13:11:39.844Z,3.33
2022-09-06T13:14:17.570Z,2.50
2022-09-06T13:16:48.443Z,3.10
2022-09-06T13:19:17.873Z,3.05
2022-09-06T13:21:46.293Z,3.88
2022-09-06T13:24:46.619Z,3.28
2022-09-06T13:27:25.191Z,3.65
2022-09-06T13:29:57.138Z,3.35
2022-09-06T13:32:23.976Z,2.72
2022-09-06T13:34:57.001Z,4.03
2022-09-06T13:37:33.657Z,3.10
2022-09-06T13:40:04.967Z,2.78
2022-09-06T13:42:38.173Z,2.97
2022-09-06T13:45:26.346Z,3.15
2022-09-06T13:48:03.501Z,3.50
2022-09-06T13:50:41.641Z,2.97
2022-09-06T13:53:08.650Z,3.67
2022-09-06T13:55:35.140Z,2.88
2022-09-06T13:58:01.606Z,3.05
2022-09-06T14:00:28.171Z,3.20
2022-09-06T14:02:55.595Z,3.13
2022-09-06T14:05:22.531Z,3.30
2022-09-06T14:07:49.107Z,2.63
2022-09-06T14:10:15.660Z,3.05
2022-09-06T14:12:42.176Z,2.97
2022-09-06T14:15:10.114Z,3.65
2022-09-06T14:17:36.710Z,2.60
2022-09-06T14:20:03.676Z,3.13
2022-09-06T14:22:30.472Z,3.00
2022-09-06T14:24:56.998Z,3.03
2022-09-06T14:27:23.788Z,2.63
2022-09-06T14:29:50.400Z,2.83
2022-09-06T14:32:22.233Z,2.83
2022-09-06T14:34:49.171Z,2.90
2022-09-06T14:37:15.700Z,2.50
2022-09-06T14:39:42.328Z,3.47
2022-09-06T14:42:09.002Z,2.90
2022-09-06T14:44:35.475Z,2.40
2022-09-06T14:47:01.977Z,2.60
2022-09-06T14:49:28.424Z,2.33
2022-09-06T14:51:54.871Z,2.67
2022-09-06T14:54:25.037Z,2.78
2022-09-06T14:56:53.818Z,3.28
2022-09-06T14:59:20.366Z,2.95
2022-09-06T15:01:46.971Z,2.58
2022-09-06T15:04:13.564Z,3.08
2022-09-06T15:06:44.763Z,2.65
2022-09-06T15:09:11.471Z,3.25
2022-09-06T15:11:43.765Z,2.33
2022-09-06T15:14:25.430Z,2.83
2022-09-06T15:16:56.406Z,2.80
2022-09-06T15:19:24.860Z,2.45
2022-09-06T15:21:51.549Z,2.72
2022-09-06T15:24:18.571Z,2.85
2022-09-06T15:26:45.950Z,2.30
2022-09-06T15:29:13.717Z,2.78
2022-09-06T15:31:41.844Z,3.25
2022-09-06T15:34:09.769Z,2.75
2022-09-06T15:36:37.310Z,2.45
2022-09-06T15:39:05.768Z,2.42
2022-09-06T15:41:35.581Z,1.95
2022-09-06T15:44:13.076Z,2.20
2022-09-06T15:46:47.087Z,2.58
2022-09-06T15:49:25.726Z,2.78
2022-09-06T15:51:55.170Z,2.45
2022-09-06T15:54:42.066Z,3.20
2022-09-06T15:57:08.732Z,2.28
2022-09-06T15:59:35.268Z,2.50
2022-09-06T16:02:01.882Z,1.90
2022-09-06T16:04:28.384Z,2.33
2022-09-06T16:06:56.688Z,2.60
2022-09-06T16:09:23.346Z,2.65
2022-09-06T16:11:49.844Z,2.15
2022-09-06T16:14:16.554Z,2.70
2022-09-06T16:16:43.681Z,2.20
2022-09-06T16:19:12.448Z,2.25
2022-09-06T16:21:41.658Z,2.85
2022-09-06T16:24:11.196Z,2.08
2022-09-06T16:26:43.382Z,2.60
2022-09-06T16:29:11.773Z,2.53
2022-09-06T16:31:40.568Z,2.40
2022-09-06T16:34:08.839Z,2.30
2022-09-06T16:36:35.437Z,2.30
2022-09-06T16:39:02.385Z,2.35
2022-09-06T16:41:39.337Z,2.28
2022-09-06T16:44:07.567Z,2.42
2022-09-06T16:46:34.656Z,2.22
2022-09-06T16:49:02.854Z,2.20
2022-09-06T16:51:31.247Z,2.35
2022-09-06T16:53:59.115Z,2.40
2022-09-06T16:56:28.743Z,2.08
2022-09-06T16:58:57.537Z,2.47
2022-09-06T17:01:25.924Z,2.15
2022-09-06T17:03:52.804Z,2.40
2022-09-06T17:06:20.270Z,2.88
2022-09-06T17:08:47.614Z,2.08
2022-09-06T17:11:16.813Z,2.20
2022-09-06T17:13:45.540Z,2.20
2022-09-06T17:16:31.595Z,2.10
2022-09-06T17:18:59.503Z,2.20
2022-09-06T17:21:26.091Z,3.38
2022-09-06T17:23:53.308Z,2.53
2022-09-06T17:26:21.349Z,2.33
2022-09-06T17:28:49.699Z,2.40
2022-09-06T17:31:22.278Z,2.72
2022-09-06T17:33:53.446Z,1.97
2022-09-06T17:36:23.663Z,2.28
2022-09-06T17:38:53.256Z,2.45
2022-09-06T17:41:28.260Z,2.53
2022-09-06T17:43:55.380Z,2.03
2022-09-06T17:46:28.432Z,3.28
2022-09-06T17:48:56.100Z,3.63
2022-09-06T17:51:23.445Z,3.10
2022-09-06T17:53:50.269Z,2.92
2022-09-06T17:56:18.139Z,3.10
2022-09-06T17:59:02.571Z,2.58
2022-09-06T18:01:32.255Z,3.08
2022-09-06T18:03:59.536Z,2.92
2022-09-06T18:06:28.660Z,3.05
2022-09-06T18:08:58.020Z,2.95
2022-09-06T18:11:27.584Z,3.20
2022-09-06T18:13:57.060Z,2.80
2022-09-06T18:16:24.231Z,3.20
2022-09-06T18:18:53.979Z,3.05
2022-09-06T18:21:21.680Z,2.92
2022-09-06T18:23:48.221Z,2.53
2022-09-06T18:28:41.340Z,3.22
2022-09-06T18:36:04.731Z,3.00
2022-09-06T18:38:31.458Z,3.33
2022-09-06T18:41:00.059Z,3.75
2022-09-06T18:43:39.827Z,3.63
2022-09-06T18:46:08.901Z,3.47
2022-09-06T18:48:36.967Z,3.08
2022-09-06T18:51:14.882Z,3.47
2022-09-06T18:53:45.720Z,3.28
2022-09-06T18:56:13.698Z,3.58
2022-09-06T18:58:40.569Z,2.90
2022-09-06T19:01:28.402Z,3.78
2022-09-06T19:03:59.409Z,3.58
2022-09-06T19:06:28.137Z,3.85
2022-09-06T19:08:58.598Z,3.80
2022-09-06T19:11:25.563Z,4.15
2022-09-06T19:13:53.673Z,3.45
2022-09-06T19:16:22.301Z,3.78
2022-09-06T19:18:49.440Z,3.65
2022-09-06T19:21:19.138Z,3.97
2022-09-06T19:23:48.289Z,4.47
2022-09-06T19:26:18.281Z,3.90
2022-09-06T19:28:55.746Z,4.13
2022-09-06T19:31:24.129Z,3.25
2022-09-06T19:33:52.108Z,4.10
2022-09-06T19:36:20.344Z,3.80
2022-09-06T19:39:03.226Z,4.00
2022-09-06T19:41:31.698Z,4.45
2022-09-06T19:43:58.861Z,4.72
2022-09-06T19:46:26.759Z,4.50
2022-09-06T19:48:55.935Z,4.45
2022-09-06T19:51:23.133Z,4.43
2022-09-06T19:53:55.090Z,3.75
2022-09-06T19:56:34.167Z,3.92
2022-09-06T19:59:03.755Z,3.90
2022-09-06T20:01:32.726Z,4.65
2022-09-06T20:04:02.382Z,3.67
2022-09-06T20:06:29.692Z,3.70
2022-09-06T20:08:58.173Z,4.20
2022-09-06T20:11:28.228Z,4.35
2022-09-06T20:13:55.323Z,4.40
2022-09-06T20:16:24.757Z,5.55
2022-09-06T20:18:51.454Z,4.68
2022-09-06T20:23:52.579Z,4.82
2022-09-06T20:26:20.341Z,4.85
2022-09-06T20:28:47.440Z,4.85
2022-09-06T20:31:16.482Z,5.15
2022-09-06T20:33:48.488Z,4.50
2022-09-06T20:36:17.033Z,4.78
2022-09-06T20:38:44.596Z,4.45
2022-09-06T20:41:23.428Z,4.85
2022-09-06T20:43:51.937Z,4.05
2022-09-06T20:46:21.311Z,4.13
2022-09-06T20:48:48.058Z,4.90
2022-09-06T20:51:19.776Z,4.18
2022-09-06T20:53:55.750Z,4.88
2022-09-06T20:56:25.368Z,4.65
2022-09-06T20:58:56.945Z,4.65
2022-09-06T21:01:26.039Z,4.32
2022-09-06T21:03:55.090Z,4.63
2022-09-06T21:06:22.852Z,4.10
2022-09-06T21:08:50.538Z,4.75
2022-09-06T21:11:17.896Z,4.78
2022-09-06T21:13:53.547Z,4.68
2022-09-06T21:16:24.705Z,4.97
2022-09-06T21:18:53.880Z,4.60
2022-09-06T21:21:22.286Z,4.60
2022-09-06T21:23:49.422Z,4.93
2022-09-06T21:26:16.039Z,5.03
2022-09-06T21:31:12.045Z,5.40
2022-09-06T21:33:40.832Z,4.88
2022-09-06T21:36:19.287Z,5.57
2022-09-06T21:38:49.132Z,4.95
2022-09-06T21:41:17.417Z,4.40
2022-09-06T21:43:43.994Z,5.18
2022-09-06T21:48:47.626Z,4.68
2022-09-06T21:51:18.500Z,4.53
2022-09-06T21:53:47.448Z,4.60
2022-09-06T21:56:15.665Z,4.50
2022-09-06T21:58:44.175Z,4.88
2022-09-06T22:03:09.329Z,5.35
2022-09-06T22:05:35.838Z,4.78
2022-09-06T22:08:02.545Z,4.82
2022-09-06T22:10:29.130Z,5.38
2022-09-06T22:15:23.615Z,5.38
2022-09-06T22:17:50.194Z,5.00
2022-09-06T22:22:46.066Z,4.93
2022-09-06T22:25:13.803Z,4.60
2022-09-06T22:27:41.042Z,4.70
2022-09-06T22:30:08.445Z,5.25
2022-09-06T22:32:35.002Z,4.82
2022-09-06T22:37:27.954Z,5.20
2022-09-06T22:39:54.523Z,5.70
2022-09-06T22:44:47.680Z,5.32
2022-09-06T22:47:14.260Z,4.63
2022-09-06T22:52:07.180Z,5.38
2022-09-06T22:57:00.345Z,5.03
2022-09-06T23:01:53.301Z,5.35
2022-09-06T23:04:19.983Z,4.97
2022-09-06T23:06:46.524Z,4.55
2022-09-06T23:09:13.048Z,4.80
2022-09-06T23:11:39.617Z,5.57
2022-09-06T23:16:32.853Z,5.07
2022-09-06T23:18:59.475Z,4.72
2022-09-06T23:21:26.502Z,5.97
2022-09-06T23:23:54.904Z,5.18
2022-09-06T23:26:24.369Z,4.82
2022-09-06T23:28:56.405Z,5.80
2022-09-06T23:31:25.552Z,4.28
2022-09-06T23:33:59.816Z,5.75
2022-09-06T23:36:27.764Z,5.15
2022-09-06T23:38:55.287Z,5.30
2022-09-06T23:41:22.069Z,5.43
2022-09-06T23:43:48.643Z,5.57
2022-09-06T23:48:43.270Z,5.97
2022-09-06T23:51:10.220Z,5.50
2022-09-06T23:53:36.838Z,5.10
2022-09-06T23:58:30.262Z,5.28
